sensor_id;sensor_type;location;lat;lon;timestamp;temperature;humidity
25346;DHT22;13300;51.032;3.710;2024-03-06T00:02:10;8.80;99.90
25346;DHT22;13300;51.032;3.710;2024-03-06T00:04:36;8.60;99.90
25346;DHT22;13300;51.032;3.710;2024-03-06T00:07:02;8.60;99.90
25346;DHT22;13300;51.032;3.710;2024-03-06T00:09:28;8.60;99.90
25346;DHT22;13300;51.032;3.710;2024-03-06T00:11:54;8.70;99.90
25346;DHT22;13300;51.032;3.710;2024-03-06T00:14:21;8.70;99.90
25346;DHT22;13300;51.032;3.710;2024-03-06T00:16:47;8.60;99.90
25346;DHT22;13300;51.032;3.710;2024-03-06T00:19:18;8.60;99.90
25346;DHT22;13300;51.032;3.710;2024-03-06T00:21:45;8.70;99.90
25346;DHT22;13300;51.032;3.710;2024-03-06T00:24:14;8.80;99.90
25346;DHT22;13300;51.032;3.710;2024-03-06T00:26:44;8.60;99.90
25346;DHT22;13300;51.032;3.710;2024-03-06T00:29:10;8.50;99.90
25346;DHT22;13300;51.032;3.710;2024-03-06T00:31:36;8.50;99.90
25346;DHT22;13300;51.032;3.710;2024-03-06T00:34:02;8.30;99.90
25346;DHT22;13300;51.032;3.710;2024-03-06T00:36:28;8.40;99.90
25346;DHT22;13300;51.032;3.710;2024-03-06T00:38:54;8.50;99.90
25346;DHT22;13300;51.032;3.710;2024-03-06T00:41:19;8.60;99.90
25346;DHT22;13300;51.032;3.710;2024-03-06T00:43:45;8.70;99.90
25346;DHT22;13300;51.032;3.710;2024-03-06T00:46:11;8.70;99.90
25346;DHT22;13300;51.032;3.710;2024-03-06T00:48:37;8.90;99.90
25346;DHT22;13300;51.032;3.710;2024-03-06T00:51:05;9.00;99.90
25346;DHT22;13300;51.032;3.710;2024-03-06T00:53:32;9.10;99.90
25346;DHT22;13300;51.032;3.710;2024-03-06T00:55:57;9.10;99.90
25346;DHT22;13300;51.032;3.710;2024-03-06T00:58:23;9.10;99.90
25346;DHT22;13300;51.032;3.710;2024-03-06T01:00:49;9.20;99.90
25346;DHT22;13300;51.032;3.710;2024-03-06T01:03:14;9.20;99.90
25346;DHT22;13300;51.032;3.710;2024-03-06T01:05:40;9.20;99.90
25346;DHT22;13300;51.032;3.710;2024-03-06T01:08:06;9.00;99.90
25346;DHT22;13300;51.032;3.710;2024-03-06T01:10:32;9.00;99.90
25346;DHT22;13300;51.032;3.710;2024-03-06T01:12:57;8.90;99.90
25346;DHT22;13300;51.032;3.710;2024-03-06T01:15:23;8.90;99.90
25346;DHT22;13300;51.032;3.710;2024-03-06T01:17:49;8.90;99.90
25346;DHT22;13300;51.032;3.710;2024-03-06T01:20:15;8.80;99.90
25346;DHT22;13300;51.032;3.710;2024-03-06T01:22:40;8.80;99.90
25346;DHT22;13300;51.032;3.710;2024-03-06T01:25:07;8.80;99.90
25346;DHT22;13300;51.032;3.710;2024-03-06T01:27:32;8.80;99.90
25346;DHT22;13300;51.032;3.710;2024-03-06T01:29:58;8.80;99.90
25346;DHT22;13300;51.032;3.710;2024-03-06T01:32:24;8.60;99.90
25346;DHT22;13300;51.032;3.710;2024-03-06T01:34:50;8.50;99.90
25346;DHT22;13300;51.032;3.710;2024-03-06T01:37:15;8.40;99.90
25346;DHT22;13300;51.032;3.710;2024-03-06T01:39:41;8.50;99.90
25346;DHT22;13300;51.032;3.710;2024-03-06T01:42:07;8.40;99.90
25346;DHT22;13300;51.032;3.710;2024-03-06T01:44:33;8.40;99.90
25346;DHT22;13300;51.032;3.710;2024-03-06T01:46:58;8.40;99.90
25346;DHT22;13300;51.032;3.710;2024-03-06T01:49:25;8.30;99.90
25346;DHT22;13300;51.032;3.710;2024-03-06T01:51:54;8.30;99.90
25346;DHT22;13300;51.032;3.710;2024-03-06T01:54:21;8.30;99.90
25346;DHT22;13300;51.032;3.710;2024-03-06T01:56:48;8.30;99.90
25346;DHT22;13300;51.032;3.710;2024-03-06T01:59:16;8.00;99.90
25346;DHT22;13300;51.032;3.710;2024-03-06T02:01:44;8.20;99.90
25346;DHT22;13300;51.032;3.710;2024-03-06T02:04:11;8.20;99.90
25346;DHT22;13300;51.032;3.710;2024-03-06T02:06:41;8.10;99.90
25346;DHT22;13300;51.032;3.710;2024-03-06T02:09:07;8.00;99.90
25346;DHT22;13300;51.032;3.710;2024-03-06T02:11:33;8.00;99.90
25346;DHT22;13300;51.032;3.710;2024-03-06T02:13:59;7.90;99.90
25346;DHT22;13300;51.032;3.710;2024-03-06T02:16:25;7.90;99.90
25346;DHT22;13300;51.032;3.710;2024-03-06T02:18:52;7.90;99.90
25346;DHT22;13300;51.032;3.710;2024-03-06T02:21:22;7.90;99.90
25346;DHT22;13300;51.032;3.710;2024-03-06T02:23:48;7.80;99.90
25346;DHT22;13300;51.032;3.710;2024-03-06T02:26:15;7.70;99.90
25346;DHT22;13300;51.032;3.710;2024-03-06T02:28:47;7.70;99.90
25346;DHT22;13300;51.032;3.710;2024-03-06T02:31:13;7.60;99.90
25346;DHT22;13300;51.032;3.710;2024-03-06T02:33:39;7.60;99.90
25346;DHT22;13300;51.032;3.710;2024-03-06T02:36:05;7.50;99.90
25346;DHT22;13300;51.032;3.710;2024-03-06T02:38:31;7.50;99.90
25346;DHT22;13300;51.032;3.710;2024-03-06T02:40:57;7.50;99.90
25346;DHT22;13300;51.032;3.710;2024-03-06T02:43:22;7.40;99.90
25346;DHT22;13300;51.032;3.710;2024-03-06T02:45:48;7.40;99.90
25346;DHT22;13300;51.032;3.710;2024-03-06T02:48:14;7.40;99.90
25346;DHT22;13300;51.032;3.710;2024-03-06T02:50:39;7.40;99.90
25346;DHT22;13300;51.032;3.710;2024-03-06T02:53:05;7.20;99.90
25346;DHT22;13300;51.032;3.710;2024-03-06T02:55:31;7.20;99.90
25346;DHT22;13300;51.032;3.710;2024-03-06T02:57:56;7.20;99.90
25346;DHT22;13300;51.032;3.710;2024-03-06T03:00:23;7.10;99.90
25346;DHT22;13300;51.032;3.710;2024-03-06T03:02:48;7.10;99.90
25346;DHT22;13300;51.032;3.710;2024-03-06T03:05:14;7.10;99.90
25346;DHT22;13300;51.032;3.710;2024-03-06T03:07:40;7.10;99.90
25346;DHT22;13300;51.032;3.710;2024-03-06T03:10:06;7.10;99.90
25346;DHT22;13300;51.032;3.710;2024-03-06T03:12:32;7.00;99.90
25346;DHT22;13300;51.032;3.710;2024-03-06T03:14:57;6.90;99.90
25346;DHT22;13300;51.032;3.710;2024-03-06T03:17:23;7.00;99.90
25346;DHT22;13300;51.032;3.710;2024-03-06T03:19:49;7.00;99.90
25346;DHT22;13300;51.032;3.710;2024-03-06T03:22:14;7.00;99.90
25346;DHT22;13300;51.032;3.710;2024-03-06T03:24:43;7.10;99.90
25346;DHT22;13300;51.032;3.710;2024-03-06T03:27:09;7.00;99.90
25346;DHT22;13300;51.032;3.710;2024-03-06T03:29:34;7.00;99.90
25346;DHT22;13300;51.032;3.710;2024-03-06T03:32:00;6.90;99.90
25346;DHT22;13300;51.032;3.710;2024-03-06T03:34:26;7.00;99.90
25346;DHT22;13300;51.032;3.710;2024-03-06T03:36:51;6.90;99.90
25346;DHT22;13300;51.032;3.710;2024-03-06T03:39:17;7.00;99.90
25346;DHT22;13300;51.032;3.710;2024-03-06T03:41:48;6.90;99.90
25346;DHT22;13300;51.032;3.710;2024-03-06T03:44:18;6.90;99.90
25346;DHT22;13300;51.032;3.710;2024-03-06T03:46:47;6.80;99.90
25346;DHT22;13300;51.032;3.710;2024-03-06T03:49:15;6.80;99.90
25346;DHT22;13300;51.032;3.710;2024-03-06T03:51:41;6.80;99.90
25346;DHT22;13300;51.032;3.710;2024-03-06T03:54:07;6.70;99.90
25346;DHT22;13300;51.032;3.710;2024-03-06T03:56:33;6.70;99.90
25346;DHT22;13300;51.032;3.710;2024-03-06T03:58:59;6.70;99.90
25346;DHT22;13300;51.032;3.710;2024-03-06T04:01:25;6.70;99.90
25346;DHT22;13300;51.032;3.710;2024-03-06T04:03:51;6.70;99.90
25346;DHT22;13300;51.032;3.710;2024-03-06T04:06:17;6.60;99.90
25346;DHT22;13300;51.032;3.710;2024-03-06T04:08:43;6.60;99.90
25346;DHT22;13300;51.032;3.710;2024-03-06T04:11:08;6.60;99.90
25346;DHT22;13300;51.032;3.710;2024-03-06T04:13:38;6.60;99.90
25346;DHT22;13300;51.032;3.710;2024-03-06T04:16:04;6.50;99.90
25346;DHT22;13300;51.032;3.710;2024-03-06T04:18:31;6.50;99.90
25346;DHT22;13300;51.032;3.710;2024-03-06T04:21:09;6.40;99.90
25346;DHT22;13300;51.032;3.710;2024-03-06T04:23:35;6.40;99.90
25346;DHT22;13300;51.032;3.710;2024-03-06T04:26:02;6.30;99.90
25346;DHT22;13300;51.032;3.710;2024-03-06T04:28:29;6.40;99.90
25346;DHT22;13300;51.032;3.710;2024-03-06T04:30:55;6.40;99.90
25346;DHT22;13300;51.032;3.710;2024-03-06T04:33:21;6.50;99.90
25346;DHT22;13300;51.032;3.710;2024-03-06T04:35:47;6.50;99.90
25346;DHT22;13300;51.032;3.710;2024-03-06T04:38:13;6.40;99.90
25346;DHT22;13300;51.032;3.710;2024-03-06T04:40:39;6.30;99.90
25346;DHT22;13300;51.032;3.710;2024-03-06T04:43:05;6.30;99.90
25346;DHT22;13300;51.032;3.710;2024-03-06T04:45:33;6.30;99.90
25346;DHT22;13300;51.032;3.710;2024-03-06T04:47:59;6.30;99.90
25346;DHT22;13300;51.032;3.710;2024-03-06T04:50:28;6.40;99.90
25346;DHT22;13300;51.032;3.710;2024-03-06T04:52:53;6.40;99.90
25346;DHT22;13300;51.032;3.710;2024-03-06T04:55:19;6.30;99.90
25346;DHT22;13300;51.032;3.710;2024-03-06T04:57:48;6.30;99.90
25346;DHT22;13300;51.032;3.710;2024-03-06T05:00:15;6.30;99.90
25346;DHT22;13300;51.032;3.710;2024-03-06T05:02:42;6.20;99.90
25346;DHT22;13300;51.032;3.710;2024-03-06T05:05:09;6.20;99.90
25346;DHT22;13300;51.032;3.710;2024-03-06T05:07:34;6.30;99.90
25346;DHT22;13300;51.032;3.710;2024-03-06T05:10:00;6.10;99.90
25346;DHT22;13300;51.032;3.710;2024-03-06T05:12:27;6.10;99.90
25346;DHT22;13300;51.032;3.710;2024-03-06T05:14:54;6.00;99.90
25346;DHT22;13300;51.032;3.710;2024-03-06T05:17:20;6.00;99.90
25346;DHT22;13300;51.032;3.710;2024-03-06T05:19:47;5.80;99.90
25346;DHT22;13300;51.032;3.710;2024-03-06T05:22:13;5.80;99.90
25346;DHT22;13300;51.032;3.710;2024-03-06T05:24:40;5.90;99.90
25346;DHT22;13300;51.032;3.710;2024-03-06T05:27:06;5.90;99.90
25346;DHT22;13300;51.032;3.710;2024-03-06T05:29:32;5.90;99.90
25346;DHT22;13300;51.032;3.710;2024-03-06T05:31:58;6.00;99.90
25346;DHT22;13300;51.032;3.710;2024-03-06T05:34:24;6.00;99.90
25346;DHT22;13300;51.032;3.710;2024-03-06T05:36:50;6.00;99.90
25346;DHT22;13300;51.032;3.710;2024-03-06T05:39:16;5.90;99.90
25346;DHT22;13300;51.032;3.710;2024-03-06T05:41:43;5.80;99.90
25346;DHT22;13300;51.032;3.710;2024-03-06T05:44:09;5.90;99.90
25346;DHT22;13300;51.032;3.710;2024-03-06T05:46:35;5.90;99.90
25346;DHT22;13300;51.032;3.710;2024-03-06T05:49:02;5.80;99.90
25346;DHT22;13300;51.032;3.710;2024-03-06T05:51:28;5.70;99.90
25346;DHT22;13300;51.032;3.710;2024-03-06T05:53:54;5.60;99.90
25346;DHT22;13300;51.032;3.710;2024-03-06T05:56:20;5.70;99.90
25346;DHT22;13300;51.032;3.710;2024-03-06T05:58:46;5.60;99.90
25346;DHT22;13300;51.032;3.710;2024-03-06T06:01:13;5.70;99.90
25346;DHT22;13300;51.032;3.710;2024-03-06T06:03:41;5.70;99.90
25346;DHT22;13300;51.032;3.710;2024-03-06T06:06:07;5.70;99.90
25346;DHT22;13300;51.032;3.710;2024-03-06T06:08:34;5.60;99.90
25346;DHT22;13300;51.032;3.710;2024-03-06T06:11:01;5.50;99.90
25346;DHT22;13300;51.032;3.710;2024-03-06T06:13:28;5.60;99.90
25346;DHT22;13300;51.032;3.710;2024-03-06T06:15:54;5.50;99.90
25346;DHT22;13300;51.032;3.710;2024-03-06T06:18:20;5.60;99.90
25346;DHT22;13300;51.032;3.710;2024-03-06T06:20:46;5.60;99.90
25346;DHT22;13300;51.032;3.710;2024-03-06T06:23:12;5.60;99.90
25346;DHT22;13300;51.032;3.710;2024-03-06T06:25:37;5.60;99.90
25346;DHT22;13300;51.032;3.710;2024-03-06T06:28:05;5.60;99.90
25346;DHT22;13300;51.032;3.710;2024-03-06T06:30:32;5.70;99.90
25346;DHT22;13300;51.032;3.710;2024-03-06T06:32:58;5.70;99.90
25346;DHT22;13300;51.032;3.710;2024-03-06T06:35:23;5.70;99.90
25346;DHT22;13300;51.032;3.710;2024-03-06T06:37:50;5.70;99.90
25346;DHT22;13300;51.032;3.710;2024-03-06T06:40:16;5.80;99.90
25346;DHT22;13300;51.032;3.710;2024-03-06T06:42:49;5.70;99.90
25346;DHT22;13300;51.032;3.710;2024-03-06T06:45:18;5.80;99.90
25346;DHT22;13300;51.032;3.710;2024-03-06T06:47:45;6.00;99.90
25346;DHT22;13300;51.032;3.710;2024-03-06T06:50:11;5.90;99.90
25346;DHT22;13300;51.032;3.710;2024-03-06T06:52:38;6.00;99.90
25346;DHT22;13300;51.032;3.710;2024-03-06T06:55:05;6.10;99.90
25346;DHT22;13300;51.032;3.710;2024-03-06T06:57:41;6.20;99.90
25346;DHT22;13300;51.032;3.710;2024-03-06T07:00:12;6.30;99.90
25346;DHT22;13300;51.032;3.710;2024-03-06T07:02:39;6.60;99.90
25346;DHT22;13300;51.032;3.710;2024-03-06T07:05:07;6.80;99.90
25346;DHT22;13300;51.032;3.710;2024-03-06T07:07:34;7.10;99.90
25346;DHT22;13300;51.032;3.710;2024-03-06T07:10:01;7.30;99.90
25346;DHT22;13300;51.032;3.710;2024-03-06T07:12:26;7.30;99.90
25346;DHT22;13300;51.032;3.710;2024-03-06T07:14:52;7.40;99.90
25346;DHT22;13300;51.032;3.710;2024-03-06T07:17:18;7.50;99.90
25346;DHT22;13300;51.032;3.710;2024-03-06T07:19:44;7.60;99.90
25346;DHT22;13300;51.032;3.710;2024-03-06T07:22:18;7.60;99.90
25346;DHT22;13300;51.032;3.710;2024-03-06T07:25:06;7.70;99.90
25346;DHT22;13300;51.032;3.710;2024-03-06T07:27:35;7.70;99.90
25346;DHT22;13300;51.032;3.710;2024-03-06T07:30:01;7.90;99.90
25346;DHT22;13300;51.032;3.710;2024-03-06T07:32:27;8.00;99.90
25346;DHT22;13300;51.032;3.710;2024-03-06T07:34:53;8.10;99.90
25346;DHT22;13300;51.032;3.710;2024-03-06T07:37:19;8.20;99.90
25346;DHT22;13300;51.032;3.710;2024-03-06T07:39:45;8.30;99.90
25346;DHT22;13300;51.032;3.710;2024-03-06T07:42:11;8.50;99.90
25346;DHT22;13300;51.032;3.710;2024-03-06T07:44:37;8.50;99.90
25346;DHT22;13300;51.032;3.710;2024-03-06T07:47:03;8.50;99.90
25346;DHT22;13300;51.032;3.710;2024-03-06T07:49:29;8.60;99.90
25346;DHT22;13300;51.032;3.710;2024-03-06T07:51:57;8.50;99.90
25346;DHT22;13300;51.032;3.710;2024-03-06T07:54:23;8.50;99.90
25346;DHT22;13300;51.032;3.710;2024-03-06T07:56:49;8.60;99.90
25346;DHT22;13300;51.032;3.710;2024-03-06T07:59:14;8.50;99.90
25346;DHT22;13300;51.032;3.710;2024-03-06T08:01:42;8.20;99.90
25346;DHT22;13300;51.032;3.710;2024-03-06T08:04:24;8.10;99.90
25346;DHT22;13300;51.032;3.710;2024-03-06T08:06:52;8.20;99.90
25346;DHT22;13300;51.032;3.710;2024-03-06T08:09:17;8.20;99.90
25346;DHT22;13300;51.032;3.710;2024-03-06T08:11:45;8.10;99.90
25346;DHT22;13300;51.032;3.710;2024-03-06T08:14:11;7.90;99.90
25346;DHT22;13300;51.032;3.710;2024-03-06T08:16:37;7.70;99.90
25346;DHT22;13300;51.032;3.710;2024-03-06T08:19:03;7.70;99.90
25346;DHT22;13300;51.032;3.710;2024-03-06T08:21:29;8.00;99.90
25346;DHT22;13300;51.032;3.710;2024-03-06T08:23:54;8.00;99.90
25346;DHT22;13300;51.032;3.710;2024-03-06T08:26:20;7.80;99.90
25346;DHT22;13300;51.032;3.710;2024-03-06T08:28:46;8.10;99.90
25346;DHT22;13300;51.032;3.710;2024-03-06T08:31:11;8.20;99.90
25346;DHT22;13300;51.032;3.710;2024-03-06T08:33:37;8.20;99.90
25346;DHT22;13300;51.032;3.710;2024-03-06T08:36:03;8.30;99.90
25346;DHT22;13300;51.032;3.710;2024-03-06T08:38:29;8.60;99.90
25346;DHT22;13300;51.032;3.710;2024-03-06T08:40:55;8.70;99.90
25346;DHT22;13300;51.032;3.710;2024-03-06T08:43:21;8.70;99.90
25346;DHT22;13300;51.032;3.710;2024-03-06T08:45:46;8.70;99.90
25346;DHT22;13300;51.032;3.710;2024-03-06T08:48:12;8.90;99.90
25346;DHT22;13300;51.032;3.710;2024-03-06T08:50:38;8.90;99.90
25346;DHT22;13300;51.032;3.710;2024-03-06T08:53:04;9.00;99.90
25346;DHT22;13300;51.032;3.710;2024-03-06T08:55:30;9.10;99.90
25346;DHT22;13300;51.032;3.710;2024-03-06T08:57:56;9.30;99.90
25346;DHT22;13300;51.032;3.710;2024-03-06T09:00:21;9.60;99.90
25346;DHT22;13300;51.032;3.710;2024-03-06T09:02:47;9.80;99.90
25346;DHT22;13300;51.032;3.710;2024-03-06T09:05:13;10.00;99.90
25346;DHT22;13300;51.032;3.710;2024-03-06T09:07:39;10.10;99.90
25346;DHT22;13300;51.032;3.710;2024-03-06T09:10:11;10.10;99.90
25346;DHT22;13300;51.032;3.710;2024-03-06T09:12:37;10.30;99.90
25346;DHT22;13300;51.032;3.710;2024-03-06T09:15:03;10.70;99.90
25346;DHT22;13300;51.032;3.710;2024-03-06T09:17:29;10.80;99.90
25346;DHT22;13300;51.032;3.710;2024-03-06T09:19:56;11.00;99.90
25346;DHT22;13300;51.032;3.710;2024-03-06T09:22:22;10.90;99.90
25346;DHT22;13300;51.032;3.710;2024-03-06T09:24:48;11.00;99.90
25346;DHT22;13300;51.032;3.710;2024-03-06T09:27:17;11.10;99.90
25346;DHT22;13300;51.032;3.710;2024-03-06T09:29:46;11.30;99.90
25346;DHT22;13300;51.032;3.710;2024-03-06T09:32:12;11.50;99.90
25346;DHT22;13300;51.032;3.710;2024-03-06T09:34:41;11.70;99.90
25346;DHT22;13300;51.032;3.710;2024-03-06T09:37:07;12.30;99.90
25346;DHT22;13300;51.032;3.710;2024-03-06T09:39:32;12.70;99.90
25346;DHT22;13300;51.032;3.710;2024-03-06T09:41:59;13.20;99.90
25346;DHT22;13300;51.032;3.710;2024-03-06T09:44:27;13.60;99.90
25346;DHT22;13300;51.032;3.710;2024-03-06T09:46:54;14.00;99.90
25346;DHT22;13300;51.032;3.710;2024-03-06T09:49:20;14.60;99.90
25346;DHT22;13300;51.032;3.710;2024-03-06T09:51:48;15.50;99.90
25346;DHT22;13300;51.032;3.710;2024-03-06T09:54:19;15.50;99.90
25346;DHT22;13300;51.032;3.710;2024-03-06T09:56:48;15.00;99.90
25346;DHT22;13300;51.032;3.710;2024-03-06T09:59:14;14.50;99.90
25346;DHT22;13300;51.032;3.710;2024-03-06T10:01:57;14.20;99.90
25346;DHT22;13300;51.032;3.710;2024-03-06T10:04:24;14.30;99.90
25346;DHT22;13300;51.032;3.710;2024-03-06T10:06:55;14.50;99.90
25346;DHT22;13300;51.032;3.710;2024-03-06T10:09:21;15.00;99.90
25346;DHT22;13300;51.032;3.710;2024-03-06T10:11:47;15.30;99.90
25346;DHT22;13300;51.032;3.710;2024-03-06T10:14:13;15.60;99.90
25346;DHT22;13300;51.032;3.710;2024-03-06T10:16:59;15.70;99.90
25346;DHT22;13300;51.032;3.710;2024-03-06T10:19:27;15.50;99.90
25346;DHT22;13300;51.032;3.710;2024-03-06T10:21:54;15.50;99.90
25346;DHT22;13300;51.032;3.710;2024-03-06T10:24:21;15.10;99.90
25346;DHT22;13300;51.032;3.710;2024-03-06T10:26:49;15.00;99.90
25346;DHT22;13300;51.032;3.710;2024-03-06T10:29:21;15.00;99.90
25346;DHT22;13300;51.032;3.710;2024-03-06T10:31:54;14.40;99.90
25346;DHT22;13300;51.032;3.710;2024-03-06T10:34:21;13.80;99.90
25346;DHT22;13300;51.032;3.710;2024-03-06T10:36:58;13.90;99.90
25346;DHT22;13300;51.032;3.710;2024-03-06T10:39:24;14.30;99.90
25346;DHT22;13300;51.032;3.710;2024-03-06T10:41:55;14.60;99.90
25346;DHT22;13300;51.032;3.710;2024-03-06T10:44:24;14.90;99.90
25346;DHT22;13300;51.032;3.710;2024-03-06T10:47:09;15.20;99.90
25346;DHT22;13300;51.032;3.710;2024-03-06T10:49:37;15.70;99.90
25346;DHT22;13300;51.032;3.710;2024-03-06T10:52:04;17.40;99.90
25346;DHT22;13300;51.032;3.710;2024-03-06T10:54:34;19.60;99.90
25346;DHT22;13300;51.032;3.710;2024-03-06T10:57:01;20.80;99.90
25346;DHT22;13300;51.032;3.710;2024-03-06T10:59:28;21.00;99.90
25346;DHT22;13300;51.032;3.710;2024-03-06T11:01:58;22.20;99.90
25346;DHT22;13300;51.032;3.710;2024-03-06T11:04:28;23.90;99.90
25346;DHT22;13300;51.032;3.710;2024-03-06T11:06:56;25.10;99.90
25346;DHT22;13300;51.032;3.710;2024-03-06T11:09:22;26.10;99.90
25346;DHT22;13300;51.032;3.710;2024-03-06T11:11:52;26.50;99.90
25346;DHT22;13300;51.032;3.710;2024-03-06T11:14:22;25.90;99.90
25346;DHT22;13300;51.032;3.710;2024-03-06T11:17:09;25.30;99.70
25346;DHT22;13300;51.032;3.710;2024-03-06T11:28:31;27.90;93.80
25346;DHT22;13300;51.032;3.710;2024-03-06T11:31:02;27.00;92.40
25346;DHT22;13300;51.032;3.710;2024-03-06T11:33:42;25.70;93.30
25346;DHT22;13300;51.032;3.710;2024-03-06T11:41:21;25.20;96.30
25346;DHT22;13300;51.032;3.710;2024-03-06T11:43:49;26.20;94.40
25346;DHT22;13300;51.032;3.710;2024-03-06T11:49:24;27.50;89.10
25346;DHT22;13300;51.032;3.710;2024-03-06T11:51:51;27.90;89.30
25346;DHT22;13300;51.032;3.710;2024-03-06T11:54:17;29.10;86.80
25346;DHT22;13300;51.032;3.710;2024-03-06T11:56:57;29.50;87.00
25346;DHT22;13300;51.032;3.710;2024-03-06T11:59:27;30.20;85.10
25346;DHT22;13300;51.032;3.710;2024-03-06T12:01:59;30.20;81.60
25346;DHT22;13300;51.032;3.710;2024-03-06T12:04:28;28.60;79.70
25346;DHT22;13300;51.032;3.710;2024-03-06T12:06:58;27.60;82.70
25346;DHT22;13300;51.032;3.710;2024-03-06T12:09:38;26.50;84.30
25346;DHT22;13300;51.032;3.710;2024-03-06T12:12:04;23.30;87.80
25346;DHT22;13300;51.032;3.710;2024-03-06T12:14:35;23.70;89.40
25346;DHT22;13300;51.032;3.710;2024-03-06T12:17:02;22.90;90.40
25346;DHT22;13300;51.032;3.710;2024-03-06T12:19:35;22.90;91.30
25346;DHT22;13300;51.032;3.710;2024-03-06T12:22:03;23.40;91.20
25346;DHT22;13300;51.032;3.710;2024-03-06T12:24:30;23.90;90.00
25346;DHT22;13300;51.032;3.710;2024-03-06T12:27:04;24.20;86.60
25346;DHT22;13300;51.032;3.710;2024-03-06T12:29:31;22.70;89.00
25346;DHT22;13300;51.032;3.710;2024-03-06T12:32:01;21.20;91.00
25346;DHT22;13300;51.032;3.710;2024-03-06T12:34:30;20.60;93.40
25346;DHT22;13300;51.032;3.710;2024-03-06T12:36:56;20.20;94.00
25346;DHT22;13300;51.032;3.710;2024-03-06T12:39:32;19.50;94.30
25346;DHT22;13300;51.032;3.710;2024-03-06T12:41:59;20.40;95.20
25346;DHT22;13300;51.032;3.710;2024-03-06T12:44:24;22.90;93.70
25346;DHT22;13300;51.032;3.710;2024-03-06T12:46:50;24.90;90.40
25346;DHT22;13300;51.032;3.710;2024-03-06T12:49:16;26.50;87.10
25346;DHT22;13300;51.032;3.710;2024-03-06T12:51:44;27.00;84.70
25346;DHT22;13300;51.032;3.710;2024-03-06T12:54:09;27.50;79.40
25346;DHT22;13300;51.032;3.710;2024-03-06T12:56:35;28.40;82.60
25346;DHT22;13300;51.032;3.710;2024-03-06T12:59:01;27.90;77.00
25346;DHT22;13300;51.032;3.710;2024-03-06T13:01:28;27.30;77.90
25346;DHT22;13300;51.032;3.710;2024-03-06T13:03:54;27.60;76.10
25346;DHT22;13300;51.032;3.710;2024-03-06T13:06:19;28.00;76.50
25346;DHT22;13300;51.032;3.710;2024-03-06T13:08:47;28.90;75.60
25346;DHT22;13300;51.032;3.710;2024-03-06T13:11:13;28.30;75.60
25346;DHT22;13300;51.032;3.710;2024-03-06T13:13:39;27.30;75.00
25346;DHT22;13300;51.032;3.710;2024-03-06T13:16:05;26.20;78.90
25346;DHT22;13300;51.032;3.710;2024-03-06T13:18:30;24.90;78.40
25346;DHT22;13300;51.032;3.710;2024-03-06T13:20:56;24.50;81.20
25346;DHT22;13300;51.032;3.710;2024-03-06T13:23:23;23.90;82.00
25346;DHT22;13300;51.032;3.710;2024-03-06T13:25:49;23.90;84.70
25346;DHT22;13300;51.032;3.710;2024-03-06T13:28:15;24.90;85.00
25346;DHT22;13300;51.032;3.710;2024-03-06T13:30:41;26.10;80.30
25346;DHT22;13300;51.032;3.710;2024-03-06T13:33:06;26.80;79.20
25346;DHT22;13300;51.032;3.710;2024-03-06T13:35:33;26.50;76.90
25346;DHT22;13300;51.032;3.710;2024-03-06T13:37:59;27.20;77.40
25346;DHT22;13300;51.032;3.710;2024-03-06T13:40:25;28.70;75.40
25346;DHT22;13300;51.032;3.710;2024-03-06T13:42:52;29.60;73.50
25346;DHT22;13300;51.032;3.710;2024-03-06T13:45:21;30.40;70.60
25346;DHT22;13300;51.032;3.710;2024-03-06T13:47:47;31.10;68.20
25346;DHT22;13300;51.032;3.710;2024-03-06T13:50:15;29.90;67.00
25346;DHT22;13300;51.032;3.710;2024-03-06T13:52:42;28.10;68.20
25346;DHT22;13300;51.032;3.710;2024-03-06T13:55:08;23.00;72.30
25346;DHT22;13300;51.032;3.710;2024-03-06T13:57:37;21.80;77.90
25346;DHT22;13300;51.032;3.710;2024-03-06T14:00:08;22.20;81.00
25346;DHT22;13300;51.032;3.710;2024-03-06T14:02:43;22.90;78.00
25346;DHT22;13300;51.032;3.710;2024-03-06T14:05:11;24.80;76.40
25346;DHT22;13300;51.032;3.710;2024-03-06T14:07:38;26.20;74.70
25346;DHT22;13300;51.032;3.710;2024-03-06T14:10:05;26.60;74.00
25346;DHT22;13300;51.032;3.710;2024-03-06T14:12:48;27.00;72.90
25346;DHT22;13300;51.032;3.710;2024-03-06T14:15:23;25.90;74.50
25346;DHT22;13300;51.032;3.710;2024-03-06T14:17:49;24.30;77.40
25346;DHT22;13300;51.032;3.710;2024-03-06T14:20:17;22.50;80.00
25346;DHT22;13300;51.032;3.710;2024-03-06T14:22:44;20.80;83.70
25346;DHT22;13300;51.032;3.710;2024-03-06T14:25:10;19.70;87.00
25346;DHT22;13300;51.032;3.710;2024-03-06T14:27:36;19.30;89.10
25346;DHT22;13300;51.032;3.710;2024-03-06T14:30:04;19.00;90.00
25346;DHT22;13300;51.032;3.710;2024-03-06T14:32:30;19.00;91.10
25346;DHT22;13300;51.032;3.710;2024-03-06T14:34:56;19.20;90.40
25346;DHT22;13300;51.032;3.710;2024-03-06T14:37:22;20.70;89.70
25346;DHT22;13300;51.032;3.710;2024-03-06T14:39:47;21.20;86.90
25346;DHT22;13300;51.032;3.710;2024-03-06T14:42:13;21.10;85.20
25346;DHT22;13300;51.032;3.710;2024-03-06T14:44:40;21.10;86.70
25346;DHT22;13300;51.032;3.710;2024-03-06T14:47:06;20.70;86.40
25346;DHT22;13300;51.032;3.710;2024-03-06T14:49:34;20.30;88.40
25346;DHT22;13300;51.032;3.710;2024-03-06T14:52:01;19.60;90.00
25346;DHT22;13300;51.032;3.710;2024-03-06T14:54:28;18.80;90.50
25346;DHT22;13300;51.032;3.710;2024-03-06T14:56:54;18.00;91.70
25346;DHT22;13300;51.032;3.710;2024-03-06T14:59:21;17.40;92.80
25346;DHT22;13300;51.032;3.710;2024-03-06T15:01:47;17.20;93.70
25346;DHT22;13300;51.032;3.710;2024-03-06T15:04:13;16.60;94.40
25346;DHT22;13300;51.032;3.710;2024-03-06T15:06:40;16.40;95.30
25346;DHT22;13300;51.032;3.710;2024-03-06T15:09:06;16.20;96.50
25346;DHT22;13300;51.032;3.710;2024-03-06T15:11:45;16.20;96.60
25346;DHT22;13300;51.032;3.710;2024-03-06T15:14:12;16.10;95.50
25346;DHT22;13300;51.032;3.710;2024-03-06T15:16:38;16.00;95.60
25346;DHT22;13300;51.032;3.710;2024-03-06T15:19:10;15.80;96.20
25346;DHT22;13300;51.032;3.710;2024-03-06T15:21:36;15.60;96.10
25346;DHT22;13300;51.032;3.710;2024-03-06T15:24:02;15.40;95.80
25346;DHT22;13300;51.032;3.710;2024-03-06T15:26:28;15.30;97.10
25346;DHT22;13300;51.032;3.710;2024-03-06T15:29:06;15.10;94.90
25346;DHT22;13300;51.032;3.710;2024-03-06T15:31:49;15.10;94.40
25346;DHT22;13300;51.032;3.710;2024-03-06T15:34:24;15.00;94.00
25346;DHT22;13300;51.032;3.710;2024-03-06T15:36:51;15.10;95.30
25346;DHT22;13300;51.032;3.710;2024-03-06T15:39:17;15.10;95.90
25346;DHT22;13300;51.032;3.710;2024-03-06T15:41:46;15.00;95.60
25346;DHT22;13300;51.032;3.710;2024-03-06T15:44:12;14.90;96.40
25346;DHT22;13300;51.032;3.710;2024-03-06T15:46:37;14.90;97.10
25346;DHT22;13300;51.032;3.710;2024-03-06T15:49:07;14.90;96.10
25346;DHT22;13300;51.032;3.710;2024-03-06T15:51:45;14.80;96.70
25346;DHT22;13300;51.032;3.710;2024-03-06T15:54:10;14.80;96.60
25346;DHT22;13300;51.032;3.710;2024-03-06T15:56:37;14.90;96.40
25346;DHT22;13300;51.032;3.710;2024-03-06T15:59:02;14.70;96.50